createdAt,value
2018-10-05T00:00:56.813Z,10.69
2018-10-05T00:03:25.379Z,10.59
2018-10-05T00:05:53.835Z,10.47
2018-10-05T00:08:22.123Z,10.39
2018-10-05T00:10:50.685Z,10.42
2018-10-05T00:13:19.079Z,10.40
2018-10-05T00:15:47.349Z,10.39
2018-10-05T00:18:15.633Z,10.41
2018-10-05T00:20:43.991Z,10.50
2018-10-05T00:23:12.559Z,10.60
2018-10-05T00:25:40.978Z,10.62
2018-10-05T00:28:09.285Z,10.51
2018-10-05T00:30:37.615Z,10.46
2018-10-05T00:33:05.944Z,10.50
2018-10-05T00:35:34.343Z,10.34
2018-10-05T00:38:02.673Z,10.15
2018-10-05T00:40:30.899Z,10.12
2018-10-05T00:42:59.297Z,10.14
2018-10-05T00:45:27.556Z,10.11
2018-10-05T00:47:55.906Z,10.06
2018-10-05T00:50:24.339Z,10.03
2018-10-05T00:52:52.727Z,10.11
2018-10-05T00:55:20.995Z,10.18
2018-10-05T00:57:49.453Z,10.28
2018-10-05T01:00:17.786Z,10.29
2018-10-05T01:02:46.353Z,10.30
2018-10-05T01:05:14.789Z,10.18
2018-10-05T01:07:43.066Z,10.17
2018-10-05T01:10:11.468Z,10.20
2018-10-05T01:12:40.003Z,10.19
2018-10-05T01:15:08.361Z,10.16
2018-10-05T01:17:36.659Z,10.19
2018-10-05T01:20:05.085Z,10.21
2018-10-05T01:22:33.387Z,10.23
2018-10-05T01:25:01.689Z,10.23
2018-10-05T01:27:30.274Z,10.15
2018-10-05T01:29:58.605Z,10.09
2018-10-05T01:32:26.996Z,10.10
2018-10-05T01:34:55.618Z,10.12
2018-10-05T01:37:23.982Z,10.09
2018-10-05T01:39:52.258Z,9.95
2018-10-05T01:42:20.577Z,9.82
2018-10-05T01:44:48.854Z,9.76
2018-10-05T01:47:17.162Z,9.75
2018-10-05T01:49:45.481Z,9.80
2018-10-05T01:52:13.819Z,9.85
2018-10-05T01:54:42.214Z,9.83
2018-10-05T01:57:10.814Z,9.68
2018-10-05T01:59:39.154Z,9.57
2018-10-05T02:02:07.574Z,9.61
2018-10-05T02:04:36.066Z,9.62
2018-10-05T02:07:04.554Z,9.66
2018-10-05T02:09:32.909Z,9.70
2018-10-05T02:12:01.217Z,9.70
2018-10-05T02:14:29.559Z,9.71
2018-10-05T02:16:58.037Z,9.73
2018-10-05T02:19:26.444Z,9.78
2018-10-05T02:21:54.866Z,9.77
2018-10-05T02:24:23.174Z,9.79
2018-10-05T02:26:51.481Z,9.86
2018-10-05T02:29:19.818Z,9.93
2018-10-05T02:31:48.121Z,9.96
2018-10-05T02:34:16.502Z,9.94
2018-10-05T02:36:44.786Z,9.99
2018-10-05T02:39:13.785Z,9.99
2018-10-05T02:41:42.565Z,9.93
2018-10-05T02:44:10.810Z,9.92
2018-10-05T02:46:39.203Z,9.85
2018-10-05T02:49:07.782Z,9.80
2018-10-05T02:51:36.155Z,9.77
2018-10-05T02:54:04.532Z,9.77
2018-10-05T02:56:32.998Z,9.68
2018-10-05T02:59:01.286Z,9.69
2018-10-05T03:01:40.938Z,9.74
2018-10-05T03:04:09.301Z,9.81
2018-10-05T03:06:37.686Z,9.77
2018-10-05T03:09:07.203Z,9.70
2018-10-05T03:11:35.646Z,9.70
2018-10-05T03:14:04.125Z,9.65
2018-10-05T03:16:32.702Z,9.55
2018-10-05T03:19:01.034Z,9.51
2018-10-05T03:21:29.383Z,9.57
2018-10-05T03:23:57.698Z,9.54
2018-10-05T03:26:25.986Z,9.53
2018-10-05T03:28:54.317Z,9.46
2018-10-05T03:31:23.027Z,9.42
2018-10-05T03:33:51.389Z,9.36
2018-10-05T03:36:19.769Z,9.29
2018-10-05T03:38:48.177Z,9.29
2018-10-05T03:41:16.516Z,9.22
2018-10-05T03:43:44.938Z,9.26
2018-10-05T03:46:13.326Z,9.35
2018-10-05T03:48:41.642Z,9.38
2018-10-05T03:51:09.969Z,9.31
2018-10-05T03:53:38.393Z,9.21
2018-10-05T03:56:06.902Z,9.23
2018-10-05T03:58:35.270Z,9.29
2018-10-05T04:01:03.564Z,9.34
2018-10-05T04:03:31.937Z,9.27
2018-10-05T04:06:00.202Z,9.09
2018-10-05T04:08:28.780Z,8.97
2018-10-05T04:10:57.177Z,8.97
2018-10-05T04:13:25.554Z,8.98
2018-10-05T04:15:53.974Z,8.98
2018-10-05T04:18:22.306Z,8.91
2018-10-05T04:20:50.697Z,8.90
2018-10-05T04:23:19.101Z,8.83
2018-10-05T04:25:47.374Z,8.79
2018-10-05T04:28:15.643Z,8.83
2018-10-05T04:30:44.040Z,8.87
2018-10-05T04:33:12.330Z,8.86
2018-10-05T04:35:40.714Z,8.86
2018-10-05T04:38:08.963Z,8.77
2018-10-05T04:40:37.326Z,8.67
2018-10-05T04:43:05.998Z,8.61
2018-10-05T04:45:34.578Z,8.62
2018-10-05T04:48:02.942Z,8.64
2018-10-05T04:50:31.219Z,8.57
2018-10-05T04:53:00.673Z,8.48
2018-10-05T04:55:29.080Z,8.46
2018-10-05T04:57:57.362Z,8.42
2018-10-05T05:00:25.678Z,8.38
2018-10-05T05:02:54.058Z,8.33
2018-10-05T05:05:22.485Z,8.27
2018-10-05T05:07:51.042Z,8.29
2018-10-05T05:10:19.385Z,8.38
2018-10-05T05:12:47.762Z,8.39
2018-10-05T05:15:17.106Z,8.29
2018-10-05T05:17:45.433Z,8.24
2018-10-05T05:20:13.818Z,8.29
2018-10-05T05:22:43.306Z,8.31
2018-10-05T05:25:11.690Z,8.34
2018-10-05T05:27:40.100Z,8.36
2018-10-05T05:30:08.675Z,8.37
2018-10-05T05:32:37.030Z,8.26
2018-10-05T05:35:05.462Z,8.29
2018-10-05T05:37:33.822Z,8.30
2018-10-05T05:40:02.170Z,8.26
2018-10-05T05:42:30.451Z,8.20
2018-10-05T05:44:58.854Z,8.21
2018-10-05T05:47:27.158Z,8.27
2018-10-05T05:49:55.451Z,8.33
2018-10-05T05:52:23.786Z,8.36
2018-10-05T05:54:52.208Z,8.47
2018-10-05T05:57:20.483Z,8.61
2018-10-05T05:59:48.778Z,8.67
2018-10-05T06:02:17.180Z,8.69
2018-10-05T06:04:45.462Z,8.67
2018-10-05T06:07:13.926Z,8.44
2018-10-05T06:09:42.190Z,8.39
2018-10-05T06:12:10.694Z,8.32
2018-10-05T06:14:39.086Z,8.28
2018-10-05T06:17:07.546Z,8.40
2018-10-05T06:19:36.036Z,8.47
2018-10-05T06:22:04.672Z,8.55
2018-10-05T06:24:32.985Z,8.62
2018-10-05T06:27:01.366Z,8.69
2018-10-05T06:29:29.666Z,8.82
2018-10-05T06:31:58.026Z,8.98
2018-10-05T06:34:26.414Z,9.14
2018-10-05T06:36:54.978Z,9.30
2018-10-05T06:39:23.258Z,9.44
2018-10-05T06:41:51.705Z,9.57
2018-10-05T06:44:20.226Z,9.72
2018-10-05T06:46:48.516Z,9.83
2018-10-05T06:49:16.979Z,9.90
2018-10-05T06:51:45.418Z,10.02
2018-10-05T06:54:13.738Z,10.17
2018-10-05T06:56:42.134Z,10.29
2018-10-05T06:59:10.853Z,10.37
2018-10-05T07:01:39.350Z,10.36
2018-10-05T07:04:07.878Z,10.40
2018-10-05T07:06:36.556Z,10.48
2018-10-05T07:09:06.486Z,10.62
2018-10-05T07:11:34.973Z,10.72
2018-10-05T07:14:03.370Z,10.84
2018-10-05T07:16:31.791Z,10.91
2018-10-05T07:19:00.159Z,10.98
2018-10-05T07:21:29.007Z,11.08
2018-10-05T07:23:57.330Z,11.14
2018-10-05T07:26:25.638Z,11.20
2018-10-05T07:28:54.322Z,11.32
2018-10-05T07:31:22.690Z,11.46
2018-10-05T07:33:51.104Z,11.57
2018-10-05T07:36:19.872Z,11.74
2018-10-05T07:38:48.226Z,11.89
2018-10-05T07:41:16.629Z,12.01
2018-10-05T07:43:45.008Z,12.12
2018-10-05T07:46:13.441Z,12.21
2018-10-05T07:48:41.708Z,12.30
2018-10-05T07:51:10.043Z,12.36
2018-10-05T07:53:38.478Z,12.45
2018-10-05T07:56:07.184Z,12.53
2018-10-05T07:58:35.626Z,12.63
2018-10-05T08:01:03.945Z,12.69
2018-10-05T08:03:32.241Z,12.75
2018-10-05T08:06:00.610Z,12.83
2018-10-05T08:08:28.963Z,12.92
2018-10-05T08:10:57.287Z,13.03
2018-10-05T08:13:25.661Z,13.11
2018-10-05T08:15:53.997Z,13.20
2018-10-05T08:18:22.383Z,13.29
2018-10-05T08:20:50.819Z,13.34
2018-10-05T08:23:19.141Z,13.42
2018-10-05T08:25:47.525Z,13.47
2018-10-05T08:28:16.688Z,13.56
2018-10-05T08:30:45.169Z,13.63
2018-10-05T08:33:13.497Z,13.70
2018-10-05T08:35:42.064Z,13.81
2018-10-05T08:38:10.378Z,13.89
2018-10-05T08:40:38.707Z,13.98
2018-10-05T08:43:07.130Z,14.06
2018-10-05T08:45:35.429Z,14.12
2018-10-05T08:48:03.738Z,14.16
2018-10-05T08:50:32.213Z,14.22
2018-10-05T08:53:00.605Z,14.27
2018-10-05T08:55:29.094Z,14.30
2018-10-05T08:57:57.673Z,14.32
2018-10-05T09:00:26.256Z,14.41
2018-10-05T09:02:54.637Z,14.46
2018-10-05T09:05:23.029Z,14.52
2018-10-05T09:07:51.357Z,14.60
2018-10-05T09:10:19.667Z,14.67
2018-10-05T09:12:48.191Z,14.72
2018-10-05T09:15:16.558Z,14.77
2018-10-05T09:17:44.914Z,14.86
2018-10-05T09:20:13.314Z,14.92
2018-10-05T09:22:41.763Z,14.96
2018-10-05T09:25:10.137Z,15.03
2018-10-05T09:27:38.615Z,15.11
2018-10-05T09:30:07.026Z,15.22
2018-10-05T09:32:35.463Z,15.31
2018-10-05T09:35:04.180Z,15.41
2018-10-05T09:37:32.587Z,15.47
2018-10-05T09:40:00.829Z,15.52
2018-10-05T09:42:29.217Z,15.59
2018-10-05T09:44:57.650Z,15.65
2018-10-05T09:47:25.957Z,15.69
2018-10-05T09:49:54.371Z,15.76
2018-10-05T09:52:22.904Z,15.89
2018-10-05T09:54:51.203Z,16.02
2018-10-05T09:57:19.793Z,16.12
2018-10-05T09:59:48.200Z,16.18
2018-10-05T10:02:22.037Z,16.25
2018-10-05T10:04:50.527Z,16.32
2018-10-05T10:07:18.919Z,16.40
2018-10-05T10:09:47.417Z,16.49
2018-10-05T10:12:15.821Z,16.63
2018-10-05T10:14:44.173Z,16.71
2018-10-05T10:17:12.677Z,16.79
2018-10-05T10:19:41.122Z,16.87
2018-10-05T10:22:09.537Z,16.98
2018-10-05T10:24:38.188Z,17.11
2018-10-05T10:27:06.571Z,17.20
2018-10-05T10:29:35.089Z,17.31
2018-10-05T10:32:03.437Z,17.49
2018-10-05T10:34:31.976Z,17.57
2018-10-05T10:37:00.289Z,17.61
2018-10-05T10:39:28.807Z,17.70
2018-10-05T10:41:57.261Z,17.83
2018-10-05T10:44:25.615Z,17.92
2018-10-05T10:46:54.106Z,17.97
2018-10-05T10:49:22.490Z,18.08
2018-10-05T10:51:50.868Z,18.15
2018-10-05T10:54:19.362Z,18.25
2018-10-05T10:56:47.743Z,18.29
2018-10-05T10:59:16.090Z,18.40
2018-10-05T11:01:44.517Z,18.55
2018-10-05T11:04:13.008Z,18.66
2018-10-05T11:06:41.418Z,18.78
2018-10-05T11:09:10.769Z,18.88
2018-10-05T11:11:39.127Z,18.90
2018-10-05T11:14:07.692Z,18.95
2018-10-05T11:16:36.090Z,19.04
2018-10-05T11:19:04.557Z,19.13
2018-10-05T11:21:32.938Z,19.22
2018-10-05T11:24:01.475Z,19.36
2018-10-05T11:26:29.805Z,19.48
2018-10-05T11:28:58.205Z,19.54
2018-10-05T11:31:26.594Z,19.63
2018-10-05T11:33:54.918Z,19.67
2018-10-05T11:36:23.310Z,19.68
2018-10-05T11:38:51.797Z,19.77
2018-10-05T11:41:20.166Z,19.84
2018-10-05T11:43:48.542Z,19.92
2018-10-05T11:46:17.076Z,20.01
2018-10-05T11:48:45.405Z,20.03
2018-10-05T11:51:13.966Z,20.07
2018-10-05T11:53:42.330Z,20.14
2018-10-05T11:56:10.739Z,20.25
2018-10-05T11:58:39.134Z,20.37
2018-10-05T12:01:07.650Z,20.47
2018-10-05T12:03:36.077Z,20.55
2018-10-05T12:06:04.506Z,20.61
2018-10-05T12:08:32.886Z,20.71
2018-10-05T12:11:01.538Z,20.75
2018-10-05T12:13:30.006Z,20.78
2018-10-05T12:15:58.435Z,20.86
2018-10-05T12:18:26.790Z,20.96
2018-10-05T12:20:55.075Z,21.06
2018-10-05T12:23:23.642Z,21.13
2018-10-05T12:25:51.926Z,21.20
2018-10-05T12:28:20.278Z,21.32
2018-10-05T12:30:48.977Z,21.40
2018-10-05T12:33:17.450Z,21.53
2018-10-05T12:35:45.903Z,21.56
2018-10-05T12:38:14.355Z,21.58
2018-10-05T12:40:42.718Z,21.60
2018-10-05T12:43:11.063Z,21.70
2018-10-05T12:45:39.458Z,21.77
2018-10-05T12:48:07.842Z,21.85
2018-10-05T12:50:36.150Z,21.88
2018-10-05T12:53:04.508Z,21.91
2018-10-05T12:55:32.846Z,21.97
2018-10-05T12:58:01.280Z,21.95
2018-10-05T13:00:29.646Z,21.99
2018-10-05T13:02:57.933Z,22.05
2018-10-05T13:05:26.210Z,22.14
2018-10-05T13:07:54.496Z,22.19
2018-10-05T13:10:22.898Z,22.21
2018-10-05T13:12:51.245Z,22.28
2018-10-05T13:15:19.606Z,22.33
2018-10-05T13:17:47.998Z,22.37
2018-10-05T13:20:16.297Z,22.49
2018-10-05T13:22:45.234Z,22.54
2018-10-05T13:25:13.590Z,22.49
2018-10-05T13:27:41.874Z,22.49
2018-10-05T13:30:10.318Z,22.55
2018-10-05T13:32:38.616Z,22.57
2018-10-05T13:35:06.925Z,22.59
2018-10-05T13:37:35.380Z,22.59
2018-10-05T13:40:03.862Z,22.61
2018-10-05T13:42:32.238Z,22.65
2018-10-05T13:45:00.656Z,22.70
2018-10-05T13:47:28.994Z,22.71
2018-10-05T13:49:57.383Z,22.72
2018-10-05T13:52:26.003Z,22.70
2018-10-05T13:54:54.609Z,22.72
2018-10-05T13:57:22.919Z,22.72
2018-10-05T13:59:51.327Z,22.72
2018-10-05T14:02:19.687Z,22.73
2018-10-05T14:04:48.059Z,22.72
2018-10-05T14:07:16.582Z,22.71
2018-10-05T14:09:45.023Z,22.72
2018-10-05T14:12:13.518Z,22.78
2018-10-05T14:14:42.155Z,22.84
2018-10-05T14:17:10.478Z,22.83
2018-10-05T14:19:38.776Z,22.85
2018-10-05T14:22:07.451Z,22.87
2018-10-05T14:24:35.742Z,22.87
2018-10-05T14:27:04.046Z,22.85
2018-10-05T14:29:32.427Z,22.84
2018-10-05T14:32:00.866Z,22.84
2018-10-05T14:34:29.331Z,22.87
2018-10-05T14:36:57.644Z,22.96
2018-10-05T14:39:25.960Z,22.97
2018-10-05T14:41:54.351Z,23.00
2018-10-05T14:44:22.802Z,22.93
2018-10-05T14:46:51.079Z,22.87
2018-10-05T14:49:19.417Z,22.81
2018-10-05T14:51:47.805Z,22.76
2018-10-05T14:54:16.149Z,22.69
2018-10-05T14:56:44.602Z,22.61
2018-10-05T14:59:13.034Z,22.58
2018-10-05T15:01:41.370Z,22.58
2018-10-05T15:04:09.982Z,22.55
2018-10-05T15:06:38.558Z,22.51
2018-10-05T15:09:07.006Z,22.48
2018-10-05T15:11:35.583Z,22.43
2018-10-05T15:14:04.118Z,22.39
2018-10-05T15:16:32.414Z,22.35
2018-10-05T15:19:00.748Z,22.30
2018-10-05T15:21:29.391Z,22.27
2018-10-05T15:23:57.726Z,22.19
2018-10-05T15:26:27.238Z,22.12
2018-10-05T15:28:55.666Z,22.11
2018-10-05T15:31:23.982Z,22.07
2018-10-05T15:33:52.271Z,22.00
2018-10-05T15:36:20.646Z,21.97
2018-10-05T15:38:48.994Z,21.93
2018-10-05T15:41:17.316Z,21.88
2018-10-05T15:43:46.142Z,21.81
2018-10-05T15:46:28.498Z,21.75
2018-10-05T15:48:56.841Z,21.68
2018-10-05T15:51:25.143Z,21.61
2018-10-05T15:53:53.623Z,21.55
2018-10-05T15:56:22.523Z,21.48
2018-10-05T15:58:50.834Z,21.37
2018-10-05T16:01:19.401Z,21.31
2018-10-05T16:03:47.795Z,21.24
2018-10-05T16:06:16.110Z,21.17
2018-10-05T16:08:44.387Z,21.09
2018-10-05T16:11:12.801Z,21.03
2018-10-05T16:13:41.085Z,20.96
2018-10-05T16:16:09.429Z,20.85
2018-10-05T16:18:38.018Z,20.75
2018-10-05T16:21:06.681Z,20.64
2018-10-05T16:23:35.231Z,20.55
2018-10-05T16:26:03.597Z,20.44
2018-10-05T16:28:31.926Z,20.32
2018-10-05T16:31:00.331Z,20.24
2018-10-05T16:33:28.729Z,20.14
2018-10-05T16:35:56.993Z,20.06
2018-10-05T16:38:25.341Z,19.97
2018-10-05T16:40:54.757Z,19.89
2018-10-05T16:43:23.134Z,19.79
2018-10-05T16:45:51.429Z,19.72
2018-10-05T16:48:19.827Z,19.62
2018-10-05T16:50:48.145Z,19.54
2018-10-05T16:53:16.563Z,19.46
2018-10-05T16:55:44.957Z,19.38
2018-10-05T16:58:13.290Z,19.30
2018-10-05T17:00:41.705Z,19.22
2018-10-05T17:03:10.469Z,19.15
2018-10-05T17:05:39.557Z,19.05
2018-10-05T17:08:07.890Z,18.96
2018-10-05T17:10:36.350Z,18.86
2018-10-05T17:13:04.581Z,18.75
2018-10-05T17:15:32.962Z,18.64
2018-10-05T17:18:01.393Z,18.57
2018-10-05T17:20:29.733Z,18.50
2018-10-05T17:22:58.097Z,18.46
2018-10-05T17:25:26.559Z,18.42
2018-10-05T17:27:55.302Z,18.38
2018-10-05T17:30:23.835Z,18.27
2018-10-05T17:32:52.439Z,18.06
2018-10-05T17:35:21.925Z,17.90
2018-10-05T17:37:50.462Z,17.76
2018-10-05T17:40:18.828Z,17.60
2018-10-05T17:42:47.206Z,17.44
2018-10-05T17:45:15.596Z,17.37
2018-10-05T17:47:43.979Z,17.21
2018-10-05T17:50:12.385Z,17.13
2018-10-05T17:52:40.974Z,17.07
2018-10-05T17:55:09.631Z,17.10
2018-10-05T17:57:37.962Z,17.11
2018-10-05T18:00:06.446Z,17.11
2018-10-05T18:02:34.939Z,17.08
2018-10-05T18:05:03.318Z,17.07
2018-10-05T18:07:31.751Z,17.00
2018-10-05T18:10:00.089Z,16.86
2018-10-05T18:12:28.377Z,16.81
2018-10-05T18:14:56.783Z,16.88
2018-10-05T18:17:25.138Z,16.90
2018-10-05T18:19:53.463Z,16.86
2018-10-05T18:22:21.854Z,16.80
2018-10-05T18:24:50.526Z,16.77
2018-10-05T18:27:18.814Z,16.72
2018-10-05T18:29:47.098Z,16.67
2018-10-05T18:32:15.602Z,16.60
2018-10-05T18:34:43.954Z,16.52
2018-10-05T18:37:12.226Z,16.46
2018-10-05T18:39:40.927Z,16.44
2018-10-05T18:42:09.582Z,16.34
2018-10-05T18:44:37.970Z,16.25
2018-10-05T18:47:07.023Z,16.12
2018-10-05T18:49:35.343Z,16.03
2018-10-05T18:52:04.074Z,16.01
2018-10-05T18:54:32.686Z,15.98
2018-10-05T18:57:17.522Z,15.91
2018-10-05T18:59:46.062Z,15.81
2018-10-05T19:02:15.430Z,15.77
2018-10-05T19:04:44.158Z,15.78
2018-10-05T19:07:12.739Z,15.81
2018-10-05T19:09:41.434Z,15.69
2018-10-05T19:12:11.217Z,15.54
2018-10-05T19:14:39.778Z,15.48
2018-10-05T19:17:08.284Z,15.31
2018-10-05T19:19:36.594Z,15.19
2018-10-05T19:22:05.086Z,15.15
2018-10-05T19:24:33.454Z,15.15
2018-10-05T19:27:01.909Z,15.13
2018-10-05T19:29:30.280Z,15.03
2018-10-05T19:31:58.666Z,14.94
2018-10-05T19:34:27.187Z,14.89
2018-10-05T19:36:55.635Z,14.84
2018-10-05T19:39:23.920Z,14.80
2018-10-05T19:41:52.397Z,14.83
2018-10-05T19:44:21.236Z,14.96
2018-10-05T19:46:49.710Z,15.01
2018-10-05T19:49:18.241Z,15.01
2018-10-05T19:51:47.029Z,14.94
2018-10-05T19:54:15.382Z,14.93
2018-10-05T19:56:43.882Z,14.95
2018-10-05T19:59:12.484Z,14.96
2018-10-05T20:01:40.974Z,14.94
2018-10-05T20:04:09.326Z,14.78
2018-10-05T20:06:37.833Z,14.70
2018-10-05T20:09:08.614Z,14.68
2018-10-05T20:11:37.023Z,14.66
2018-10-05T20:14:05.714Z,14.54
2018-10-05T20:16:35.348Z,14.46
2018-10-05T20:19:03.774Z,14.42
2018-10-05T20:21:32.107Z,14.41
2018-10-05T20:24:00.383Z,14.43
2018-10-05T20:26:28.896Z,14.38
2018-10-05T20:28:57.551Z,14.35
2018-10-05T20:31:26.183Z,14.32
2018-10-05T20:33:54.506Z,14.27
2018-10-05T20:36:24.204Z,14.12
2018-10-05T20:38:52.429Z,14.03
2018-10-05T20:41:20.730Z,13.97
2018-10-05T20:43:49.215Z,13.95
2018-10-05T20:46:17.916Z,13.92
2018-10-05T20:48:46.589Z,13.95
2018-10-05T20:51:15.180Z,13.99
2018-10-05T20:53:43.626Z,14.07
2018-10-05T20:56:11.926Z,14.05
2018-10-05T20:58:40.426Z,14.10
2018-10-05T21:01:08.870Z,14.15
2018-10-05T21:03:37.464Z,14.14
2018-10-05T21:06:05.866Z,14.04
2018-10-05T21:08:34.224Z,13.89
2018-10-05T21:11:02.982Z,13.85
2018-10-05T21:13:31.346Z,13.88
2018-10-05T21:15:59.623Z,13.94
2018-10-05T21:18:28.038Z,13.96
2018-10-05T21:20:56.547Z,13.92
2018-10-05T21:23:24.816Z,13.88
2018-10-05T21:25:53.262Z,13.88
2018-10-05T21:28:21.774Z,13.97
2018-10-05T21:30:50.346Z,13.98
2018-10-05T21:33:18.694Z,13.76
2018-10-05T21:35:47.215Z,13.58
2018-10-05T21:38:15.841Z,13.57
2018-10-05T21:40:44.267Z,13.52
2018-10-05T21:43:12.862Z,13.53
2018-10-05T21:45:41.247Z,13.55
2018-10-05T21:48:09.619Z,13.55
2018-10-05T21:50:38.033Z,13.48
2018-10-05T21:53:06.359Z,13.43
2018-10-05T21:55:34.635Z,13.45
2018-10-05T21:58:02.988Z,13.38
2018-10-05T22:00:36.642Z,13.36
2018-10-05T22:03:05.239Z,13.41
2018-10-05T22:05:33.581Z,13.37
2018-10-05T22:08:02.074Z,13.33
2018-10-05T22:10:30.908Z,13.32
2018-10-05T22:12:59.241Z,13.34
2018-10-05T22:15:27.649Z,13.30
2018-10-05T22:17:55.993Z,13.28
2018-10-05T22:20:24.653Z,13.14
2018-10-05T22:22:53.060Z,13.09
2018-10-05T22:25:21.750Z,13.17
2018-10-05T22:27:50.313Z,13.08
2018-10-05T22:30:18.710Z,12.87
2018-10-05T22:32:47.481Z,12.85
2018-10-05T22:35:15.871Z,12.91
2018-10-05T22:37:44.428Z,12.94
2018-10-05T22:40:12.755Z,12.94
2018-10-05T22:42:41.446Z,12.99
2018-10-05T22:45:09.795Z,13.07
2018-10-05T22:47:38.115Z,13.11
2018-10-05T22:50:06.514Z,13.10
2018-10-05T22:52:34.993Z,13.04
2018-10-05T22:55:03.375Z,12.95
2018-10-05T22:57:31.663Z,12.97
2018-10-05T22:59:59.943Z,12.90
2018-10-05T23:02:28.555Z,12.79
2018-10-05T23:04:56.930Z,12.80
2018-10-05T23:07:25.496Z,12.80
2018-10-05T23:09:54.189Z,12.73
2018-10-05T23:12:22.594Z,12.69
2018-10-05T23:14:50.950Z,12.54
2018-10-05T23:17:19.362Z,12.45
2018-10-05T23:19:47.712Z,12.44
2018-10-05T23:22:16.049Z,12.52
2018-10-05T23:24:44.685Z,12.52
2018-10-05T23:27:13.044Z,12.45
2018-10-05T23:29:41.707Z,12.48
2018-10-05T23:32:10.019Z,12.56
2018-10-05T23:34:38.537Z,12.56
2018-10-05T23:37:06.958Z,12.48
2018-10-05T23:39:35.479Z,12.37
2018-10-05T23:42:03.829Z,12.31
2018-10-05T23:44:32.739Z,12.33
2018-10-05T23:47:01.143Z,12.31
2018-10-05T23:49:29.807Z,12.29
2018-10-05T23:52:04.254Z,12.25
2018-10-05T23:54:32.580Z,12.28
2018-10-05T23:57:01.000Z,12.27
2018-10-05T23:59:29.582Z,12.26
